Time;durP1;ratioP1;P1;durP2;ratioP2;P2;SDS_P1;SDS_P2;PMS_P1;PMS_P2;Temp;Humidity;BMP_temperature;BMP_pressure;BME280_temperature;BME280_humidity;BME280_pressure;Samples;Min_cycle;Max_cycle;Signal;HPM_P1;HPM_P2
2021/10/27 00:00:30;;;;;;;23.80;15.40;;;;;;;;;;139457;1190;97139;-81
2021/10/27 00:03:47;;;;;;;21.60;14.10;;;;;;;;;;139459;1190;97138;-81
2021/10/27 00:06:50;;;;;;;24.30;15.60;;;;;;;;;;139415;1195;97562;-83
2021/10/27 00:09:54;;;;;;;23.10;15.30;;;;;;;;;;139554;1180;96386;-82
2021/10/27 00:12:58;;;;;;;22.60;14.70;;;;;;;;;;139425;1189;96741;-83
2021/10/27 00:16:02;;;;;;;22.80;15.10;;;;;;;;;;139461;1195;97130;-84
2021/10/27 00:19:06;;;;;;;24.90;16.10;;;;;;;;;;139434;1195;97559;-84
2021/10/27 00:22:10;;;;;;;23.30;15.70;;;;;;;;;;139507;1180;96347;-83
2021/10/27 00:25:14;;;;;;;23.40;15.60;;;;;;;;;;139440;1195;97257;-83
2021/10/27 00:28:18;;;;;;;25.20;15.10;;;;;;;;;;139455;1190;96310;-84
2021/10/27 00:31:22;;;;;;;22.20;13.80;;;;;;;;;;139517;1188;96355;-83
2021/10/27 00:34:25;;;;;;;22.00;15.10;;;;;;;;;;139420;1190;96313;-86
2021/10/27 00:37:29;;;;;;;25.10;16.00;;;;;;;;;;139510;1190;96315;-83
2021/10/27 00:40:33;;;;;;;23.60;16.20;;;;;;;;;;139453;1190;97128;-85
2021/10/27 00:43:38;;;;;;;22.20;15.00;;;;;;;;;;139481;1189;97560;-85
2021/10/27 00:46:41;;;;;;;24.00;15.90;;;;;;;;;;139441;1189;96318;-84
2021/10/27 00:49:46;;;;;;;21.40;15.30;;;;;;;;;;139502;1190;96388;-86
2021/10/27 00:52:50;;;;;;;21.90;14.70;;;;;;;;;;139530;1188;97138;-85
2021/10/27 00:55:55;;;;;;;21.80;13.70;;;;;;;;;;139451;1188;96315;-84
2021/10/27 00:58:59;;;;;;;22.30;14.30;;;;;;;;;;139503;1189;97581;-85
2021/10/27 01:02:02;;;;;;;22.60;14.70;;;;;;;;;;139447;1190;96316;-84
2021/10/27 01:05:07;;;;;;;22.20;14.80;;;;;;;;;;139476;1189;96379;-84
2021/10/27 01:08:11;;;;;;;22.20;14.80;;;;;;;;;;139401;1189;96315;-85
2021/10/27 01:11:15;;;;;;;21.20;14.30;;;;;;;;;;139499;1190;96317;-85
2021/10/27 01:14:19;;;;;;;22.90;15.40;;;;;;;;;;139495;1189;97248;-84
2021/10/27 01:17:23;;;;;;;21.00;13.60;;;;;;;;;;139518;1190;97169;-85
2021/10/27 01:20:28;;;;;;;18.40;12.40;;;;;;;;;;139650;1188;96281;-87
2021/10/27 01:23:32;;;;;;;21.40;14.30;;;;;;;;;;139455;1190;96306;-87
2021/10/27 01:26:37;;;;;;;20.30;13.90;;;;;;;;;;139420;1188;97515;-85
2021/10/27 01:29:41;;;;;;;22.90;14.90;;;;;;;;;;139443;1190;96318;-86
2021/10/27 01:32:46;;;;;;;22.40;14.00;;;;;;;;;;139470;1190;97177;-86
2021/10/27 01:35:50;;;;;;;23.70;15.30;;;;;;;;;;139572;1190;96296;-86
2021/10/27 01:38:54;;;;;;;21.80;14.20;;;;;;;;;;139402;1190;96742;-84
2021/10/27 01:41:57;;;;;;;19.60;13.20;;;;;;;;;;139432;1189;96304;-84
2021/10/27 01:45:01;;;;;;;18.10;11.70;;;;;;;;;;139450;1189;96413;-84
2021/10/27 01:48:08;;;;;;;20.80;14.00;;;;;;;;;;139501;1189;96636;-85
2021/10/27 01:51:12;;;;;;;20.80;13.90;;;;;;;;;;139450;1189;96297;-86
2021/10/27 01:54:17;;;;;;;20.20;14.10;;;;;;;;;;139423;1190;97572;-83
2021/10/27 01:57:21;;;;;;;19.60;13.30;;;;;;;;;;139484;1190;97725;-84
2021/10/27 02:00:25;;;;;;;20.50;14.30;;;;;;;;;;139387;1188;96303;-83
2021/10/27 02:03:29;;;;;;;21.40;14.40;;;;;;;;;;139479;1190;96282;-84
2021/10/27 02:06:33;;;;;;;18.70;12.10;;;;;;;;;;139418;1189;97537;-83
2021/10/27 02:09:37;;;;;;;21.60;12.80;;;;;;;;;;139446;1190;96292;-85
2021/10/27 02:12:42;;;;;;;21.70;13.90;;;;;;;;;;139493;1189;97128;-85
2021/10/27 02:15:46;;;;;;;21.10;13.90;;;;;;;;;;139488;1190;97546;-85
2021/10/27 02:18:49;;;;;;;20.60;14.00;;;;;;;;;;139452;1188;97572;-84
2021/10/27 02:21:53;;;;;;;19.00;12.80;;;;;;;;;;139510;1190;96401;-83
2021/10/27 02:24:57;;;;;;;19.30;12.60;;;;;;;;;;139505;1189;97597;-84
2021/10/27 02:28:01;;;;;;;20.10;13.70;;;;;;;;;;139471;1195;96716;-82
2021/10/27 02:31:05;;;;;;;21.60;12.90;;;;;;;;;;139568;1190;97135;-81
2021/10/27 02:34:09;;;;;;;20.70;13.40;;;;;;;;;;139491;1189;96363;-81
2021/10/27 02:37:12;;;;;;;21.60;14.40;;;;;;;;;;139415;1189;97548;-84
2021/10/27 02:40:16;;;;;;;23.10;14.10;;;;;;;;;;139437;1188;96429;-83
2021/10/27 02:43:20;;;;;;;20.60;14.00;;;;;;;;;;139390;1189;96668;-83
2021/10/27 02:46:24;;;;;;;19.70;13.70;;;;;;;;;;139442;1190;97591;-83
2021/10/27 02:49:28;;;;;;;19.40;13.50;;;;;;;;;;139531;1188;96334;-83
2021/10/27 02:52:32;;;;;;;22.90;15.40;;;;;;;;;;139532;1188;97570;-79
2021/10/27 02:55:36;;;;;;;19.80;13.00;;;;;;;;;;139330;1190;97550;-78
2021/10/27 02:58:42;;;;;;;20.40;12.70;;;;;;;;;;139296;1190;97132;-77
2021/10/27 03:01:46;;;;;;;20.30;13.80;;;;;;;;;;139326;1193;97596;-80
2021/10/27 03:04:49;;;;;;;21.70;14.40;;;;;;;;;;139522;1190;97157;-83
2021/10/27 03:07:53;;;;;;;22.20;14.60;;;;;;;;;;139623;1189;97556;-82
2021/10/27 03:10:57;;;;;;;21.80;14.90;;;;;;;;;;139740;1190;96287;-84
2021/10/27 03:14:01;;;;;;;20.10;13.60;;;;;;;;;;139520;1190;97145;-85
2021/10/27 03:17:05;;;;;;;24.00;15.20;;;;;;;;;;139489;1190;96321;-86
2021/10/27 03:20:09;;;;;;;20.30;12.50;;;;;;;;;;139381;1190;97120;-82
2021/10/27 03:23:13;;;;;;;18.70;12.40;;;;;;;;;;139487;1191;96397;-82
2021/10/27 03:26:17;;;;;;;18.70;13.70;;;;;;;;;;139553;1190;96290;-84
2021/10/27 03:29:21;;;;;;;22.10;14.20;;;;;;;;;;139403;1190;96318;-84
2021/10/27 03:32:26;;;;;;;21.10;14.40;;;;;;;;;;139618;1189;97097;-85
2021/10/27 03:35:30;;;;;;;22.70;14.50;;;;;;;;;;139840;1189;97547;-86
2021/10/27 03:38:34;;;;;;;20.20;13.90;;;;;;;;;;139616;1189;96353;-84
2021/10/27 03:41:38;;;;;;;21.00;13.90;;;;;;;;;;139597;1188;96295;-88
2021/10/27 03:44:42;;;;;;;19.50;13.40;;;;;;;;;;139670;1189;96389;-87
2021/10/27 03:47:46;;;;;;;17.10;11.70;;;;;;;;;;139532;1187;97116;-88
2021/10/27 03:50:50;;;;;;;19.60;12.60;;;;;;;;;;139608;1188;96315;-88
2021/10/27 03:53:55;;;;;;;19.50;12.10;;;;;;;;;;139533;1189;97138;-90
2021/10/27 03:56:59;;;;;;;18.80;12.40;;;;;;;;;;139703;1188;96344;-89
2021/10/27 04:00:05;;;;;;;20.20;12.90;;;;;;;;;;139639;1190;96319;-89
2021/10/27 04:03:14;;;;;;;;;;;;;;;;;;139749;1187;96273;-89
2021/10/27 04:06:17;;;;;;;18.70;13.50;;;;;;;;;;139493;1189;96826;-87
2021/10/27 04:09:21;;;;;;;20.20;13.30;;;;;;;;;;139351;1188;96304;-85
2021/10/27 04:12:25;;;;;;;22.20;14.10;;;;;;;;;;139677;1189;97556;-87
2021/10/27 04:15:29;;;;;;;19.10;13.20;;;;;;;;;;139540;1190;96291;-87
2021/10/27 04:18:33;;;;;;;18.80;13.50;;;;;;;;;;139621;1190;97546;-89
2021/10/27 04:21:37;;;;;;;21.40;13.60;;;;;;;;;;139582;1188;96402;-88
2021/10/27 04:24:41;;;;;;;18.80;12.30;;;;;;;;;;139500;1188;96387;-86
2021/10/27 04:27:45;;;;;;;21.10;13.90;;;;;;;;;;139590;1187;96315;-87
2021/10/27 04:30:49;;;;;;;21.90;13.30;;;;;;;;;;139630;1188;96296;-79
2021/10/27 04:33:52;;;;;;;23.50;15.00;;;;;;;;;;139437;1188;96337;-82
2021/10/27 04:36:56;;;;;;;29.20;17.30;;;;;;;;;;139561;1189;96283;-86
2021/10/27 04:40:00;;;;;;;24.50;16.30;;;;;;;;;;139545;1189;96386;-84
2021/10/27 04:43:04;;;;;;;29.50;18.40;;;;;;;;;;139540;1189;96420;-84
2021/10/27 04:46:08;;;;;;;55.50;27.60;;;;;;;;;;139547;1189;97180;-87
2021/10/27 04:49:12;;;;;;;38.60;22.40;;;;;;;;;;139482;1188;96632;-84
2021/10/27 04:52:16;;;;;;;56.40;30.70;;;;;;;;;;139638;1188;96282;-87
2021/10/27 04:55:20;;;;;;;56.30;30.40;;;;;;;;;;139508;1189;96318;-91
2021/10/27 04:58:27;;;;;;;40.00;23.00;;;;;;;;;;139807;1188;96296;-90
2021/10/27 05:01:31;;;;;;;36.70;22.80;;;;;;;;;;139800;1188;96417;-89
2021/10/27 05:04:35;;;;;;;58.80;39.40;;;;;;;;;;139557;1190;96636;-85
2021/10/27 05:07:43;;;;;;;38.60;24.40;;;;;;;;;;139379;1189;96296;-84
2021/10/27 05:10:47;;;;;;;28.10;18.20;;;;;;;;;;139470;1190;97556;-83
2021/10/27 05:13:52;;;;;;;28.10;18.20;;;;;;;;;;139436;1188;97141;-84
2021/10/27 05:16:56;;;;;;;32.60;19.10;;;;;;;;;;139372;1189;97759;-83
2021/10/27 05:20:00;;;;;;;32.10;19.70;;;;;;;;;;139462;1189;96318;-85
2021/10/27 05:23:04;;;;;;;28.10;18.90;;;;;;;;;;139630;1190;96722;-81
2021/10/27 05:26:08;;;;;;;31.50;18.70;;;;;;;;;;139434;1190;96379;-81
2021/10/27 05:29:12;;;;;;;31.60;20.30;;;;;;;;;;139565;1188;96292;-80
2021/10/27 05:32:16;;;;;;;30.50;18.30;;;;;;;;;;139486;1190;97585;-82
2021/10/27 05:35:21;;;;;;;29.80;17.00;;;;;;;;;;139416;1190;97235;-80
2021/10/27 05:38:25;;;;;;;29.70;17.70;;;;;;;;;;139320;1189;96305;-80
2021/10/27 05:41:31;;;;;;;29.90;20.50;;;;;;;;;;139348;1189;96374;-83
2021/10/27 05:44:35;;;;;;;31.80;19.60;;;;;;;;;;139822;1188;97240;-83
2021/10/27 05:47:45;;;;;;;33.20;21.90;;;;;;;;;;139566;1189;96423;-83
2021/10/27 05:50:59;;;;;;;31.80;20.80;;;;;;;;;;139532;1189;97279;-84
2021/10/27 05:57:26;;;;;;;30.50;17.60;;;;;;;;;;139554;1180;97482;-77
2021/10/27 06:00:31;;;;;;;30.00;19.60;;;;;;;;;;139331;1189;97661;-77
2021/10/27 06:03:34;;;;;;;32.30;20.90;;;;;;;;;;139337;1190;97164;-77
2021/10/27 06:06:38;;;;;;;32.90;20.70;;;;;;;;;;139302;1193;97541;-78
2021/10/27 06:09:42;;;;;;;30.50;20.20;;;;;;;;;;139495;1188;96486;-80
2021/10/27 06:12:46;;;;;;;35.10;21.70;;;;;;;;;;139584;1189;96681;-81
2021/10/27 06:15:51;;;;;;;32.80;21.00;;;;;;;;;;139468;1189;97607;-81
2021/10/27 06:18:55;;;;;;;37.50;23.70;;;;;;;;;;139444;1188;97171;-81
2021/10/27 06:21:59;;;;;;;41.50;26.10;;;;;;;;;;139456;1190;96391;-81
2021/10/27 06:25:03;;;;;;;80.00;45.80;;;;;;;;;;139485;1180;96806;-80
2021/10/27 06:28:10;;;;;;;96.70;59.20;;;;;;;;;;139491;1190;96307;-81
2021/10/27 06:31:18;;;;;;;277.00;158.40;;;;;;;;;;139495;1190;97154;-79
2021/10/27 06:34:30;;;;;;;106.00;58.90;;;;;;;;;;139419;1189;97163;-80
2021/10/27 06:47:39;;;;;;;36.90;22.50;;;;;;;;;;139338;1190;96822;-80
2021/10/27 06:50:43;;;;;;;31.80;22.10;;;;;;;;;;139515;1190;97556;-78
2021/10/27 06:53:48;;;;;;;30.10;20.60;;;;;;;;;;139321;1189;96367;-78
2021/10/27 06:56:52;;;;;;;32.90;22.00;;;;;;;;;;139409;1189;96318;-78
2021/10/27 07:00:00;;;;;;;31.30;21.80;;;;;;;;;;139388;1189;97617;-79
2021/10/27 07:06:43;;;;;;;25.90;17.60;;;;;;;;;;139339;1189;96322;-78
2021/10/27 07:16:30;;;;;;;29.30;19.40;;;;;;;;;;139409;1195;97115;-78
2021/10/27 07:19:34;;;;;;;27.80;19.90;;;;;;;;;;139405;1188;97017;-78
2021/10/27 07:22:38;;;;;;;28.30;19.50;;;;;;;;;;139316;1192;96685;-77
2021/10/27 07:25:42;;;;;;;31.70;19.90;;;;;;;;;;139390;1189;96294;-77
2021/10/27 07:28:48;;;;;;;26.40;17.20;;;;;;;;;;139318;1190;97617;-77
2021/10/27 07:31:53;;;;;;;25.00;15.40;;;;;;;;;;139374;1190;96328;-77
2021/10/27 07:35:01;;;;;;;25.70;17.60;;;;;;;;;;139329;1190;96618;-78
2021/10/27 07:41:26;;;;;;;26.50;18.20;;;;;;;;;;139416;1174;96316;-78
2021/10/27 07:44:30;;;;;;;26.40;18.00;;;;;;;;;;139292;1189;97117;-78
2021/10/27 07:47:34;;;;;;;27.70;19.10;;;;;;;;;;139392;1189;97120;-78
2021/10/27 07:50:38;;;;;;;30.50;18.20;;;;;;;;;;139362;1190;96363;-79
2021/10/27 07:53:42;;;;;;;24.70;16.00;;;;;;;;;;139408;1190;96304;-77
2021/10/27 07:56:47;;;;;;;23.80;15.20;;;;;;;;;;139383;1190;96319;-77
2021/10/27 07:59:51;;;;;;;22.00;15.30;;;;;;;;;;139391;1190;97565;-76
2021/10/27 08:03:00;;;;;;;25.20;16.50;;;;;;;;;;139336;1189;96307;-79
2021/10/27 08:06:07;;;;;;;25.40;17.40;;;;;;;;;;139336;1190;96308;-79
2021/10/27 08:09:11;;;;;;;25.20;18.40;;;;;;;;;;139385;1189;96316;-78
2021/10/27 08:12:14;;;;;;;24.90;17.80;;;;;;;;;;139394;1190;96261;-79
2021/10/27 08:15:19;;;;;;;25.80;17.80;;;;;;;;;;139360;1187;96276;-79
2021/10/27 08:18:23;;;;;;;24.60;16.70;;;;;;;;;;139361;1189;97146;-80
2021/10/27 08:21:26;;;;;;;22.70;15.50;;;;;;;;;;139346;1184;96787;-80
2021/10/27 08:24:30;;;;;;;24.90;17.10;;;;;;;;;;139551;1189;96283;-79
2021/10/27 08:27:36;;;;;;;24.70;17.80;;;;;;;;;;139342;1188;96424;-78
2021/10/27 08:30:44;;;;;;;24.20;16.40;;;;;;;;;;139368;1189;96376;-79
2021/10/27 08:34:03;;;;;;;25.20;17.70;;;;;;;;;;139310;1190;97171;-80
2021/10/27 08:37:08;;;;;;;24.20;17.30;;;;;;;;;;139316;1190;96292;-80
2021/10/27 08:40:14;;;;;;;25.00;17.50;;;;;;;;;;139306;1190;97557;-80
2021/10/27 08:43:18;;;;;;;23.90;16.80;;;;;;;;;;139320;1190;96298;-79
2021/10/27 08:46:23;;;;;;;34.10;23.50;;;;;;;;;;139363;1190;96298;-79
2021/10/27 08:49:28;;;;;;;24.70;16.80;;;;;;;;;;139301;1189;97557;-80
2021/10/27 08:52:32;;;;;;;23.40;15.90;;;;;;;;;;139371;1188;96387;-80
2021/10/27 08:55:36;;;;;;;23.50;16.80;;;;;;;;;;139390;1193;97135;-79
2021/10/27 08:58:42;;;;;;;24.20;16.70;;;;;;;;;;139381;1190;96283;-79
2021/10/27 09:01:56;;;;;;;22.60;14.90;;;;;;;;;;139401;1193;97194;-78
2021/10/27 09:05:19;;;;;;;21.20;15.90;;;;;;;;;;139360;1190;97135;-79
2021/10/27 09:36:02;;;;;;;18.30;13.70;;;;;;;;;;139053;1193;95937;-78
2021/10/27 09:39:38;;;;;;;17.00;11.70;;;;;;;;;;138954;1194;95943;-77
2021/10/27 09:43:00;;;;;;;17.60;12.20;;;;;;;;;;138995;1193;95713;-74
2021/10/27 10:06:12;;;;;;;;;;;;;;;;;;139039;1194;95857;-77
2021/10/27 10:09:16;;;;;;;15.50;11.30;;;;;;;;;;138899;1184;95880;-77
2021/10/27 10:12:22;;;;;;;16.80;11.00;;;;;;;;;;139001;1193;95619;-77
2021/10/27 10:15:27;;;;;;;17.10;11.60;;;;;;;;;;138965;1200;95882;-78
2021/10/27 10:18:31;;;;;;;16.50;10.90;;;;;;;;;;139024;1193;95023;-76
2021/10/27 10:21:37;;;;;;;16.00;10.90;;;;;;;;;;139019;1192;95602;-76
2021/10/27 10:24:40;;;;;;;20.30;13.60;;;;;;;;;;139124;1191;95743;-76
2021/10/27 10:27:45;;;;;;;18.00;12.50;;;;;;;;;;139057;1198;95672;-77
2021/10/27 10:30:55;;;;;;;16.60;11.50;;;;;;;;;;139020;1190;94956;-77
2021/10/27 10:34:03;;;;;;;16.40;11.20;;;;;;;;;;139015;1194;95790;-77
2021/10/27 10:37:21;;;;;;;17.20;12.60;;;;;;;;;;139058;1193;95026;-77
2021/10/27 10:40:46;;;;;;;17.10;12.80;;;;;;;;;;139032;1193;96261;-77
2021/10/27 10:44:33;;;;;;;18.90;12.80;;;;;;;;;;139054;1196;95803;-76
2021/10/27 10:58:34;;;;;;;13.50;9.60;;;;;;;;;;139002;1198;95657;-77
2021/10/27 11:01:55;;;;;;;16.80;10.60;;;;;;;;;;139008;1190;95506;-76
2021/10/27 11:25:54;;;;;;;13.90;9.50;;;;;;;;;;138696;1193;95754;-77
2021/10/27 11:42:43;;;;;;;12.40;8.70;;;;;;;;;;139060;1192;95825;-77
2021/10/27 11:45:57;;;;;;;12.30;8.10;;;;;;;;;;139050;1198;95820;-76
2021/10/27 11:49:09;;;;;;;11.30;7.90;;;;;;;;;;139018;1191;94954;-77
2021/10/27 11:52:13;;;;;;;12.50;8.40;;;;;;;;;;139149;1193;95729;-76
2021/10/27 11:55:17;;;;;;;11.30;8.00;;;;;;;;;;139083;1193;95883;-77
2021/10/27 11:58:22;;;;;;;11.00;8.50;;;;;;;;;;139022;1193;95715;-84
2021/10/27 12:01:31;;;;;;;11.50;8.50;;;;;;;;;;139281;1191;95657;-77
2021/10/27 12:04:35;;;;;;;12.00;8.10;;;;;;;;;;138994;1196;95836;-76
2021/10/27 12:07:52;;;;;;;12.40;8.40;;;;;;;;;;139073;1193;95801;-77
2021/10/27 12:11:03;;;;;;;12.40;8.00;;;;;;;;;;139032;1193;95654;-77
2021/10/27 12:14:21;;;;;;;11.00;7.90;;;;;;;;;;139085;1194;95938;-77
2021/10/27 12:17:31;;;;;;;11.10;7.40;;;;;;;;;;139052;1187;96213;-78
2021/10/27 12:20:37;;;;;;;11.60;7.10;;;;;;;;;;139045;1194;95877;-77
2021/10/27 12:23:49;;;;;;;8.80;6.80;;;;;;;;;;139030;1193;95806;-77
2021/10/27 12:27:00;;;;;;;11.40;7.20;;;;;;;;;;139026;1193;95751;-77
2021/10/27 12:30:06;;;;;;;10.60;6.80;;;;;;;;;;139028;1193;95554;-77
2021/10/27 12:33:10;;;;;;;9.90;6.60;;;;;;;;;;139050;1193;95730;-77
2021/10/27 12:36:24;;;;;;;10.60;7.10;;;;;;;;;;139029;1193;95882;-77
2021/10/27 12:39:42;;;;;;;9.40;6.50;;;;;;;;;;139069;1193;95023;-77
2021/10/27 12:42:46;;;;;;;11.10;6.50;;;;;;;;;;139005;1199;95880;-76
2021/10/27 12:45:51;;;;;;;10.50;6.10;;;;;;;;;;139095;1193;95749;-76
2021/10/27 12:48:55;;;;;;;8.20;5.70;;;;;;;;;;139107;1193;96125;-77
2021/10/27 12:52:19;;;;;;;8.00;6.00;;;;;;;;;;139127;1193;95765;-77
2021/10/27 12:55:28;;;;;;;7.80;5.80;;;;;;;;;;139025;1193;95542;-76
2021/10/27 12:58:33;;;;;;;7.70;5.40;;;;;;;;;;139048;1193;95668;-78
2021/10/27 13:01:41;;;;;;;9.50;5.30;;;;;;;;;;139000;1193;95587;-80
2021/10/27 13:04:52;;;;;;;7.80;5.30;;;;;;;;;;139257;1192;95611;-75
2021/10/27 13:08:02;;;;;;;9.30;6.00;;;;;;;;;;139069;1193;95774;-78
2021/10/27 13:11:21;;;;;;;11.80;6.30;;;;;;;;;;139026;1199;95777;-78
2021/10/27 13:18:12;;;;;;;8.30;5.30;;;;;;;;;;138953;1199;95775;-79
2021/10/27 13:31:29;;;;;;;7.00;4.60;;;;;;;;;;139121;1192;95670;-75
2021/10/27 13:34:34;;;;;;;9.60;5.40;;;;;;;;;;139058;1194;95801;-80
2021/10/27 13:37:38;;;;;;;12.30;8.50;;;;;;;;;;139253;1199;95596;-79
2021/10/27 13:40:44;;;;;;;19.80;12.90;;;;;;;;;;139061;1193;95773;-75
2021/10/27 13:43:52;;;;;;;67.70;47.00;;;;;;;;;;139033;1199;95705;-84
2021/10/27 13:47:09;;;;;;;103.50;74.50;;;;;;;;;;139491;1187;95773;-81
2021/10/27 14:07:06;;;;;;;6.60;4.60;;;;;;;;;;139442;1195;95594;-78
2021/10/27 14:10:13;;;;;;;8.70;5.50;;;;;;;;;;139579;1187;95861;-77
2021/10/27 14:13:23;;;;;;;6.80;5.10;;;;;;;;;;139407;1187;95614;-82
2021/10/27 14:16:51;;;;;;;8.20;5.40;;;;;;;;;;139585;1187;95833;-88
2021/10/27 14:38:55;;;;;;;10.10;5.90;;;;;;;;;;139446;1187;95753;-77
2021/10/27 14:40:48;;;;;;;10.10;6.20;;;;;;;;;;139543;1188;96904;-78
2021/10/27 14:47:54;;;;;;;12.40;9.30;;;;;;;;;;139415;1190;97105;-78
2021/10/27 14:51:19;;;;;;;11.10;7.30;;;;;;;;;;139284;1190;97598;-77
2021/10/27 15:21:18;;;;;;;78.90;58.80;;;;;;;;;;139627;1187;96379;-79
2021/10/27 15:24:39;;;;;;;46.60;34.00;;;;;;;;;;139495;1189;97575;-81
2021/10/27 15:31:26;;;;;;;19.60;12.30;;;;;;;;;;139602;1190;97547;-79
2021/10/27 15:34:46;;;;;;;20.30;12.60;;;;;;;;;;139675;1187;96367;-79
2021/10/27 15:41:24;;;;;;;48.90;34.70;;;;;;;;;;139345;1187;96308;-77
2021/10/27 15:44:36;;;;;;;24.70;13.90;;;;;;;;;;139400;1187;97581;-75
2021/10/27 15:51:05;;;;;;;14.30;8.30;;;;;;;;;;139394;1195;97152;-75
2021/10/27 15:54:09;;;;;;;14.10;9.90;;;;;;;;;;139480;1187;97580;-75
2021/10/27 15:57:13;;;;;;;13.70;7.40;;;;;;;;;;139337;1181;96367;-76
2021/10/27 16:00:21;;;;;;;16.80;10.80;;;;;;;;;;139345;1181;97111;-78
2021/10/27 16:03:25;;;;;;;12.40;7.00;;;;;;;;;;139507;1190;97655;-79
2021/10/27 16:06:32;;;;;;;13.40;7.90;;;;;;;;;;139382;1187;96337;-76
2021/10/27 16:09:42;;;;;;;13.90;9.20;;;;;;;;;;139319;1187;96314;-76
2021/10/27 16:12:46;;;;;;;12.80;7.90;;;;;;;;;;139400;1187;96337;-76
2021/10/27 16:15:57;;;;;;;14.10;8.50;;;;;;;;;;139401;1187;97207;-76
2021/10/27 16:19:02;;;;;;;14.30;8.40;;;;;;;;;;139519;1188;97606;-74
2021/10/27 16:22:07;;;;;;;14.40;8.90;;;;;;;;;;139674;1187;97718;-73
2021/10/27 16:25:11;;;;;;;14.80;8.50;;;;;;;;;;139703;1187;96642;-78
2021/10/27 16:28:15;;;;;;;15.10;8.30;;;;;;;;;;139431;1187;97132;-78
2021/10/27 16:31:19;;;;;;;14.60;9.10;;;;;;;;;;139662;1187;96309;-77
2021/10/27 16:34:23;;;;;;;18.10;10.30;;;;;;;;;;139532;1190;96366;-77
2021/10/27 16:37:28;;;;;;;18.90;10.40;;;;;;;;;;139501;1187;97549;-76
2021/10/27 16:40:36;;;;;;;15.00;9.50;;;;;;;;;;139472;1188;97588;-77
2021/10/27 16:43:41;;;;;;;16.50;9.70;;;;;;;;;;139491;1190;97562;-79
2021/10/27 16:46:45;;;;;;;16.00;9.10;;;;;;;;;;139744;1189;96310;-81
2021/10/27 16:49:49;;;;;;;16.70;10.00;;;;;;;;;;139738;1190;96582;-78
2021/10/27 16:52:56;;;;;;;16.60;10.10;;;;;;;;;;139324;1191;97662;-77
2021/10/27 16:56:00;;;;;;;14.90;9.70;;;;;;;;;;139501;1190;96308;-79
2021/10/27 16:59:04;;;;;;;14.40;8.60;;;;;;;;;;139713;1187;96286;-82
2021/10/27 17:02:08;;;;;;;16.20;9.90;;;;;;;;;;139754;1174;97139;-79
2021/10/27 17:05:12;;;;;;;14.80;9.60;;;;;;;;;;139572;1190;97568;-78
2021/10/27 17:08:20;;;;;;;16.70;9.90;;;;;;;;;;139524;1188;97583;-87
2021/10/27 17:11:24;;;;;;;14.30;9.40;;;;;;;;;;139872;1188;97537;-86
2021/10/27 17:14:28;;;;;;;15.50;9.40;;;;;;;;;;139439;1188;97029;-80
2021/10/27 17:17:32;;;;;;;16.10;10.20;;;;;;;;;;139412;1190;96373;-86
2021/10/27 17:20:36;;;;;;;15.60;9.70;;;;;;;;;;139544;1188;96301;-84
2021/10/27 17:23:40;;;;;;;15.30;8.80;;;;;;;;;;139503;1188;96297;-83
2021/10/27 17:26:44;;;;;;;14.20;9.00;;;;;;;;;;139515;1181;97142;-79
2021/10/27 17:29:48;;;;;;;13.90;9.20;;;;;;;;;;139810;1187;96927;-76
2021/10/27 17:32:53;;;;;;;18.00;11.30;;;;;;;;;;139417;1187;96292;-76
2021/10/27 17:36:01;;;;;;;18.70;10.30;;;;;;;;;;139450;1180;96916;-78
2021/10/27 17:39:06;;;;;;;14.60;9.60;;;;;;;;;;139406;1187;96700;-77
2021/10/27 17:42:13;;;;;;;18.90;12.40;;;;;;;;;;139385;1187;96303;-76
2021/10/27 17:45:22;;;;;;;17.30;10.60;;;;;;;;;;139499;1187;96281;-76
2021/10/27 17:48:28;;;;;;;18.00;10.80;;;;;;;;;;139502;1187;97131;-78
2021/10/27 17:51:36;;;;;;;16.80;10.60;;;;;;;;;;139408;1188;97563;-77
2021/10/27 18:01:40;;;;;;;16.90;10.80;;;;;;;;;;139542;1187;97125;-81
2021/10/27 18:04:45;;;;;;;15.70;9.50;;;;;;;;;;139526;1181;97165;-79
2021/10/27 18:07:52;;;;;;;16.10;10.10;;;;;;;;;;139556;1180;96315;-79
2021/10/27 18:10:57;;;;;;;16.20;10.70;;;;;;;;;;139707;1187;96298;-83
2021/10/27 18:14:04;;;;;;;16.60;10.50;;;;;;;;;;139983;1187;97136;-81
2021/10/27 18:17:08;;;;;;;15.60;10.10;;;;;;;;;;139712;1194;97549;-80
2021/10/27 18:20:12;;;;;;;16.50;10.50;;;;;;;;;;139454;1187;96389;-80
2021/10/27 18:23:30;;;;;;;15.70;10.70;;;;;;;;;;139552;1190;97678;-80
2021/10/27 18:26:55;;;;;;;19.00;11.90;;;;;;;;;;139474;1190;96335;-80
2021/10/27 18:36:49;;;;;;;20.60;12.10;;;;;;;;;;139472;1190;96359;-81
2021/10/27 18:40:05;;;;;;;18.00;11.80;;;;;;;;;;139554;1189;96308;-78
2021/10/27 18:43:12;;;;;;;19.30;11.50;;;;;;;;;;139553;1188;96318;-80
2021/10/27 18:46:18;;;;;;;19.80;12.20;;;;;;;;;;139484;1181;97134;-81
2021/10/27 18:49:22;;;;;;;22.30;13.80;;;;;;;;;;139503;1189;96751;-81
2021/10/27 18:52:39;;;;;;;17.60;11.10;;;;;;;;;;139484;1190;96626;-81
2021/10/27 18:55:57;;;;;;;19.80;12.40;;;;;;;;;;139479;1190;96292;-80
2021/10/27 18:59:18;;;;;;;19.80;11.90;;;;;;;;;;139448;1188;96335;-80
2021/10/27 19:02:26;;;;;;;19.30;12.80;;;;;;;;;;139531;1189;96745;-80
2021/10/27 19:12:15;;;;;;;;;;;;;;;;;;139475;1189;96398;-78
2021/10/27 19:15:24;;;;;;;22.50;12.10;;;;;;;;;;139419;1189;96716;-76
2021/10/27 19:18:29;;;;;;;21.40;12.70;;;;;;;;;;139465;1187;97084;-79
2021/10/27 19:21:33;;;;;;;20.20;11.60;;;;;;;;;;139522;1187;96324;-81
2021/10/27 19:24:45;;;;;;;18.90;11.20;;;;;;;;;;139446;1187;96306;-82
2021/10/27 19:27:55;;;;;;;14.50;9.70;;;;;;;;;;139449;1181;96281;-82
2021/10/27 19:31:13;;;;;;;17.90;11.50;;;;;;;;;;139444;1187;97088;-81
2021/10/27 19:34:45;;;;;;;17.80;11.90;;;;;;;;;;139475;1187;96268;-81
2021/10/27 20:08:17;;;;;;;18.90;11.30;;;;;;;;;;139411;1180;96828;-81
2021/10/27 20:11:53;;;;;;;16.10;10.50;;;;;;;;;;139398;1187;97130;-80
2021/10/27 20:18:29;;;;;;;18.40;11.40;;;;;;;;;;139400;1187;97549;-80
2021/10/27 20:28:43;;;;;;;18.60;11.80;;;;;;;;;;139485;1187;97664;-81
2021/10/27 20:48:46;;;;;;;19.30;11.60;;;;;;;;;;139476;1187;97137;-83
2021/10/27 20:52:07;;;;;;;18.40;11.60;;;;;;;;;;139427;1187;97604;-84
2021/10/27 20:55:11;;;;;;;18.80;12.10;;;;;;;;;;139443;1187;97557;-84
2021/10/27 20:58:27;;;;;;;18.30;11.60;;;;;;;;;;139483;1187;96335;-83
2021/10/27 21:01:34;;;;;;;17.30;11.40;;;;;;;;;;139454;1187;97556;-83
2021/10/27 21:12:08;;;;;;;18.80;12.70;;;;;;;;;;139501;1187;97121;-83
2021/10/27 21:14:55;;;;;;;18.80;12.00;;;;;;;;;;139429;1193;97546;-82
2021/10/27 21:17:59;;;;;;;18.40;12.30;;;;;;;;;;139407;1179;97575;-83
2021/10/27 21:21:03;;;;;;;22.20;13.00;;;;;;;;;;139415;1187;96381;-82
2021/10/27 21:24:08;;;;;;;17.20;11.20;;;;;;;;;;139461;1181;96297;-84
2021/10/27 21:27:18;;;;;;;18.80;11.50;;;;;;;;;;139516;1181;96280;-83
2021/10/27 21:33:54;;;;;;;17.70;11.60;;;;;;;;;;139382;1187;97168;-81
2021/10/27 21:43:42;;;;;;;16.70;11.20;;;;;;;;;;139379;1187;97540;-82
2021/10/27 21:46:47;;;;;;;18.80;11.60;;;;;;;;;;139422;1187;96382;-82
2021/10/27 21:49:51;;;;;;;18.40;12.00;;;;;;;;;;139463;1187;97562;-81
2021/10/27 21:52:55;;;;;;;19.50;12.70;;;;;;;;;;139428;1187;97540;-80
2021/10/27 21:56:01;;;;;;;19.60;11.90;;;;;;;;;;139430;1187;97160;-81
2021/10/27 21:59:05;;;;;;;16.00;10.50;;;;;;;;;;139402;1179;96331;-80
2021/10/27 22:02:11;;;;;;;15.00;10.00;;;;;;;;;;139404;1181;97559;-81
2021/10/27 22:05:15;;;;;;;16.10;10.60;;;;;;;;;;139489;1187;96370;-81
2021/10/27 22:08:18;;;;;;;16.40;10.70;;;;;;;;;;139487;1187;97579;-81
2021/10/27 22:11:23;;;;;;;16.50;10.50;;;;;;;;;;139482;1187;97167;-79
2021/10/27 22:14:28;;;;;;;15.20;10.00;;;;;;;;;;139352;1187;97154;-79
2021/10/27 22:17:32;;;;;;;14.90;10.00;;;;;;;;;;139361;1187;96280;-79
2021/10/27 22:20:36;;;;;;;14.60;9.80;;;;;;;;;;139357;1187;96725;-81
2021/10/27 22:23:40;;;;;;;16.20;9.80;;;;;;;;;;139432;1190;96334;-80
2021/10/27 22:26:45;;;;;;;12.60;9.10;;;;;;;;;;139418;1187;96297;-80
2021/10/27 22:29:49;;;;;;;14.60;9.50;;;;;;;;;;139407;1187;96396;-80
2021/10/27 22:32:52;;;;;;;14.10;8.40;;;;;;;;;;139567;1187;97110;-85
2021/10/27 22:35:56;;;;;;;10.30;7.60;;;;;;;;;;139431;1181;97547;-83
2021/10/27 22:39:00;;;;;;;11.30;7.40;;;;;;;;;;139474;1187;97549;-81
2021/10/27 22:42:04;;;;;;;11.50;8.50;;;;;;;;;;139467;1180;96931;-82
2021/10/27 22:45:09;;;;;;;12.30;8.50;;;;;;;;;;139436;1187;97112;-82
2021/10/27 22:48:13;;;;;;;12.40;8.00;;;;;;;;;;139491;1187;96306;-81
2021/10/27 22:51:17;;;;;;;11.40;8.40;;;;;;;;;;139363;1187;96279;-80
2021/10/27 22:54:20;;;;;;;12.60;9.30;;;;;;;;;;139387;1187;96318;-79
2021/10/27 22:57:24;;;;;;;12.90;9.10;;;;;;;;;;139401;1187;96389;-80
2021/10/27 23:00:31;;;;;;;11.50;8.60;;;;;;;;;;139377;1187;96372;-82